sensor_id;sensor_type;location;lat;lon;timestamp;pressure;altitude;pressure_sealevel;temperature
68588;BMP180;55560;52.174;20.996;2023-05-02T00:00:54;100579.60;;;10.20
68588;BMP180;55560;52.174;20.996;2023-05-02T00:03:22;100570.20;;;10.20
68588;BMP180;55560;52.174;20.996;2023-05-02T00:05:50;100571.60;;;10.20
68588;BMP180;55560;52.174;20.996;2023-05-02T00:08:17;100567.00;;;10.20
68588;BMP180;55560;52.174;20.996;2023-05-02T00:10:45;100567.60;;;10.20
68588;BMP180;55560;52.174;20.996;2023-05-02T00:13:13;100565.60;;;10.10
68588;BMP180;55560;52.174;20.996;2023-05-02T00:15:41;100561.20;;;10.10
68588;BMP180;55560;52.174;20.996;2023-05-02T00:18:09;100559.20;;;10.10
68588;BMP180;55560;52.174;20.996;2023-05-02T00:20:39;100554.60;;;10.10
68588;BMP180;55560;52.174;20.996;2023-05-02T00:23:08;100552.60;;;10.10
68588;BMP180;55560;52.174;20.996;2023-05-02T00:25:35;100545.60;;;10.04
68588;BMP180;55560;52.174;20.996;2023-05-02T00:28:03;100546.20;;;10.02
68588;BMP180;55560;52.174;20.996;2023-05-02T00:30:32;100546.00;;;10.00
68588;BMP180;55560;52.174;20.996;2023-05-02T00:33:00;100543.00;;;10.00
68588;BMP180;55560;52.174;20.996;2023-05-02T00:35:27;100542.60;;;10.00
68588;BMP180;55560;52.174;20.996;2023-05-02T00:37:58;100539.60;;;10.00
68588;BMP180;55560;52.174;20.996;2023-05-02T00:40:26;100529.80;;;10.00
68588;BMP180;55560;52.174;20.996;2023-05-02T00:42:54;100533.40;;;10.00
68588;BMP180;55560;52.174;20.996;2023-05-02T00:45:22;100537.20;;;10.00
68588;BMP180;55560;52.174;20.996;2023-05-02T00:47:50;100532.20;;;10.00
68588;BMP180;55560;52.174;20.996;2023-05-02T00:50:17;100534.40;;;10.00
68588;BMP180;55560;52.174;20.996;2023-05-02T00:52:46;100533.40;;;10.00
68588;BMP180;55560;52.174;20.996;2023-05-02T00:55:14;100525.80;;;10.00
68588;BMP180;55560;52.174;20.996;2023-05-02T00:57:42;100529.00;;;10.00
68588;BMP180;55560;52.174;20.996;2023-05-02T01:00:11;100525.00;;;9.98
68588;BMP180;55560;52.174;20.996;2023-05-02T01:09:23;100523.20;;;9.90
68588;BMP180;55560;52.174;20.996;2023-05-02T01:14:41;100516.40;;;9.90
68588;BMP180;55560;52.174;20.996;2023-05-02T01:17:13;100513.00;;;9.84
68588;BMP180;55560;52.174;20.996;2023-05-02T01:19:52;100513.20;;;9.82
68588;BMP180;55560;52.174;20.996;2023-05-02T01:22:23;100512.20;;;9.80
68588;BMP180;55560;52.174;20.996;2023-05-02T01:28:17;100511.00;;;9.80
68588;BMP180;55560;52.174;20.996;2023-05-02T01:30:48;100512.40;;;9.80
68588;BMP180;55560;52.174;20.996;2023-05-02T01:33:17;100506.20;;;9.80
68588;BMP180;55560;52.174;20.996;2023-05-02T01:35:49;100506.40;;;9.80
68588;BMP180;55560;52.174;20.996;2023-05-02T01:38:19;100505.40;;;9.80
68588;BMP180;55560;52.174;20.996;2023-05-02T01:40:50;100503.40;;;9.74
68588;BMP180;55560;52.174;20.996;2023-05-02T01:43:19;100500.40;;;9.70
68588;BMP180;55560;52.174;20.996;2023-05-02T01:45:49;100496.60;;;9.70
68588;BMP180;55560;52.174;20.996;2023-05-02T01:48:18;100491.40;;;9.70
68588;BMP180;55560;52.174;20.996;2023-05-02T01:50:47;100490.80;;;9.70
68588;BMP180;55560;52.174;20.996;2023-05-02T01:53:17;100481.40;;;9.70
68588;BMP180;55560;52.174;20.996;2023-05-02T01:55:45;100481.80;;;9.70
68588;BMP180;55560;52.174;20.996;2023-05-02T01:58:15;100484.00;;;9.70
68588;BMP180;55560;52.174;20.996;2023-05-02T02:00:44;100478.20;;;9.60
68588;BMP180;55560;52.174;20.996;2023-05-02T02:03:13;100483.00;;;9.60
68588;BMP180;55560;52.174;20.996;2023-05-02T02:05:41;100478.60;;;9.60
68588;BMP180;55560;52.174;20.996;2023-05-02T02:08:10;100476.40;;;9.60
68588;BMP180;55560;52.174;20.996;2023-05-02T02:10:45;100475.60;;;9.56
68588;BMP180;55560;52.174;20.996;2023-05-02T02:13:23;100468.80;;;9.52
68588;BMP180;55560;52.174;20.996;2023-05-02T02:15:58;100462.00;;;9.50
68588;BMP180;55560;52.174;20.996;2023-05-02T02:18:28;100461.60;;;9.50
68588;BMP180;55560;52.174;20.996;2023-05-02T02:20:58;100459.00;;;9.50
68588;BMP180;55560;52.174;20.996;2023-05-02T02:23:27;100457.80;;;9.50
68588;BMP180;55560;52.174;20.996;2023-05-02T02:25:57;100460.20;;;9.48
68588;BMP180;55560;52.174;20.996;2023-05-02T02:28:25;100458.60;;;9.46
68588;BMP180;55560;52.174;20.996;2023-05-02T02:30:55;100457.40;;;9.46
68588;BMP180;55560;52.174;20.996;2023-05-02T02:33:29;100455.60;;;9.40
68588;BMP180;55560;52.174;20.996;2023-05-02T02:36:07;100453.40;;;9.40
68588;BMP180;55560;52.174;20.996;2023-05-02T02:42:31;100449.40;;;9.40
68588;BMP180;55560;52.174;20.996;2023-05-02T02:48:19;100455.00;;;9.40
68588;BMP180;55560;52.174;20.996;2023-05-02T02:53:58;100453.00;;;9.30
68588;BMP180;55560;52.174;20.996;2023-05-02T02:56:39;100453.00;;;9.30
68588;BMP180;55560;52.174;20.996;2023-05-02T02:59:27;100450.60;;;9.30
68588;BMP180;55560;52.174;20.996;2023-05-02T03:02:07;100451.00;;;9.30
68588;BMP180;55560;52.174;20.996;2023-05-02T03:04:39;100450.40;;;9.30
68588;BMP180;55560;52.174;20.996;2023-05-02T03:07:09;100444.80;;;9.30
68588;BMP180;55560;52.174;20.996;2023-05-02T03:09:46;100446.20;;;9.22
68588;BMP180;55560;52.174;20.996;2023-05-02T03:12:19;100444.40;;;9.20
68588;BMP180;55560;52.174;20.996;2023-05-02T03:14:48;100445.60;;;9.20
68588;BMP180;55560;52.174;20.996;2023-05-02T03:17:16;100449.00;;;9.20
68588;BMP180;55560;52.174;20.996;2023-05-02T03:19:45;100448.40;;;9.20
68588;BMP180;55560;52.174;20.996;2023-05-02T03:22:13;100446.60;;;9.18
68588;BMP180;55560;52.174;20.996;2023-05-02T03:24:41;100447.20;;;9.10
68588;BMP180;55560;52.174;20.996;2023-05-02T03:27:09;100444.60;;;9.10
68588;BMP180;55560;52.174;20.996;2023-05-02T03:29:39;100444.40;;;9.10
68588;BMP180;55560;52.174;20.996;2023-05-02T03:32:08;100437.20;;;9.10
68588;BMP180;55560;52.174;20.996;2023-05-02T03:34:36;100444.00;;;9.10
68588;BMP180;55560;52.174;20.996;2023-05-02T03:37:04;100448.80;;;9.06
68588;BMP180;55560;52.174;20.996;2023-05-02T03:39:32;100450.40;;;9.00
68588;BMP180;55560;52.174;20.996;2023-05-02T03:42:01;100454.40;;;9.00
68588;BMP180;55560;52.174;20.996;2023-05-02T03:44:29;100445.80;;;9.00
68588;BMP180;55560;52.174;20.996;2023-05-02T03:46:57;100443.00;;;8.90
68588;BMP180;55560;52.174;20.996;2023-05-02T03:49:26;100446.20;;;8.90
68588;BMP180;55560;52.174;20.996;2023-05-02T03:51:54;100446.40;;;8.90
68588;BMP180;55560;52.174;20.996;2023-05-02T03:54:24;100447.00;;;8.90
68588;BMP180;55560;52.174;20.996;2023-05-02T03:56:53;100445.80;;;8.90
68588;BMP180;55560;52.174;20.996;2023-05-02T03:59:24;100448.20;;;8.90
68588;BMP180;55560;52.174;20.996;2023-05-02T04:01:54;100449.60;;;8.90
68588;BMP180;55560;52.174;20.996;2023-05-02T04:04:28;100454.00;;;8.90
68588;BMP180;55560;52.174;20.996;2023-05-02T04:06:56;100455.20;;;8.90
68588;BMP180;55560;52.174;20.996;2023-05-02T04:09:24;100457.20;;;8.96
68588;BMP180;55560;52.174;20.996;2023-05-02T04:12:14;100458.40;;;9.00
68588;BMP180;55560;52.174;20.996;2023-05-02T04:14:44;100456.40;;;9.00
68588;BMP180;55560;52.174;20.996;2023-05-02T04:17:13;100451.20;;;9.00
68588;BMP180;55560;52.174;20.996;2023-05-02T04:19:48;100450.00;;;9.00
68588;BMP180;55560;52.174;20.996;2023-05-02T04:22:16;100458.80;;;9.00
68588;BMP180;55560;52.174;20.996;2023-05-02T04:24:49;100455.00;;;9.00
68588;BMP180;55560;52.174;20.996;2023-05-02T04:27:17;100452.80;;;9.10
68588;BMP180;55560;52.174;20.996;2023-05-02T04:29:49;100460.20;;;9.18
68588;BMP180;55560;52.174;20.996;2023-05-02T04:32:18;100454.40;;;9.20
68588;BMP180;55560;52.174;20.996;2023-05-02T04:34:47;100452.20;;;9.20
68588;BMP180;55560;52.174;20.996;2023-05-02T04:37:15;100457.80;;;9.30
68588;BMP180;55560;52.174;20.996;2023-05-02T04:39:45;100454.80;;;9.30
68588;BMP180;55560;52.174;20.996;2023-05-02T04:42:19;100455.80;;;9.38
68588;BMP180;55560;52.174;20.996;2023-05-02T04:44:54;100457.00;;;9.40
68588;BMP180;55560;52.174;20.996;2023-05-02T04:47:22;100458.40;;;9.40
68588;BMP180;55560;52.174;20.996;2023-05-02T04:49:50;100457.60;;;9.44
68588;BMP180;55560;52.174;20.996;2023-05-02T04:52:18;100460.00;;;9.50
68588;BMP180;55560;52.174;20.996;2023-05-02T04:54:45;100453.40;;;9.52
68588;BMP180;55560;52.174;20.996;2023-05-02T04:57:13;100457.00;;;9.60
68588;BMP180;55560;52.174;20.996;2023-05-02T04:59:45;100462.80;;;9.60
68588;BMP180;55560;52.174;20.996;2023-05-02T05:02:13;100458.80;;;9.60
68588;BMP180;55560;52.174;20.996;2023-05-02T05:04:41;100461.00;;;9.70
68588;BMP180;55560;52.174;20.996;2023-05-02T05:07:09;100457.40;;;9.70
68588;BMP180;55560;52.174;20.996;2023-05-02T05:09:37;100456.00;;;9.78
68588;BMP180;55560;52.174;20.996;2023-05-02T05:12:06;100447.60;;;9.80
68588;BMP180;55560;52.174;20.996;2023-05-02T05:14:35;100449.80;;;9.90
68588;BMP180;55560;52.174;20.996;2023-05-02T05:17:03;100447.40;;;10.00
68588;BMP180;55560;52.174;20.996;2023-05-02T05:19:31;100447.20;;;10.10
68588;BMP180;55560;52.174;20.996;2023-05-02T05:21:59;100444.40;;;10.20
68588;BMP180;55560;52.174;20.996;2023-05-02T05:24:27;100441.00;;;10.30
68588;BMP180;55560;52.174;20.996;2023-05-02T05:26:57;100440.80;;;10.40
68588;BMP180;55560;52.174;20.996;2023-05-02T05:29:25;100441.20;;;10.60
68588;BMP180;55560;52.174;20.996;2023-05-02T05:31:54;100439.40;;;10.80
68588;BMP180;55560;52.174;20.996;2023-05-02T05:34:22;100434.40;;;11.36
68588;BMP180;55560;52.174;20.996;2023-05-02T05:36:53;100442.40;;;12.40
68588;BMP180;55560;52.174;20.996;2023-05-02T05:39:22;100433.40;;;12.84
68588;BMP180;55560;52.174;20.996;2023-05-02T05:41:51;100438.80;;;13.32
68588;BMP180;55560;52.174;20.996;2023-05-02T05:44:19;100437.20;;;13.72
68588;BMP180;55560;52.174;20.996;2023-05-02T05:46:51;100436.60;;;14.30
68588;BMP180;55560;52.174;20.996;2023-05-02T05:49:21;100440.80;;;14.92
68588;BMP180;55560;52.174;20.996;2023-05-02T05:51:49;100438.60;;;15.68
68588;BMP180;55560;52.174;20.996;2023-05-02T05:54:17;100438.20;;;16.16
68588;BMP180;55560;52.174;20.996;2023-05-02T05:56:45;100435.40;;;16.20
68588;BMP180;55560;52.174;20.996;2023-05-02T05:59:16;100439.40;;;16.50
68588;BMP180;55560;52.174;20.996;2023-05-02T06:01:44;100440.00;;;16.20
68588;BMP180;55560;52.174;20.996;2023-05-02T06:04:13;100435.40;;;16.00
68588;BMP180;55560;52.174;20.996;2023-05-02T06:06:45;100439.20;;;15.80
68588;BMP180;55560;52.174;20.996;2023-05-02T06:09:13;100435.00;;;15.70
68588;BMP180;55560;52.174;20.996;2023-05-02T06:11:41;100438.20;;;15.66
68588;BMP180;55560;52.174;20.996;2023-05-02T06:14:08;100431.20;;;15.60
68588;BMP180;55560;52.174;20.996;2023-05-02T06:16:36;100436.20;;;15.60
68588;BMP180;55560;52.174;20.996;2023-05-02T06:19:05;100430.20;;;15.70
68588;BMP180;55560;52.174;20.996;2023-05-02T06:21:35;100433.80;;;16.02
68588;BMP180;55560;52.174;20.996;2023-05-02T06:24:03;100438.20;;;16.58
68588;BMP180;55560;52.174;20.996;2023-05-02T06:26:31;100440.00;;;17.16
68588;BMP180;55560;52.174;20.996;2023-05-02T06:28:59;100445.00;;;17.50
68588;BMP180;55560;52.174;20.996;2023-05-02T06:31:27;100445.40;;;17.46
68588;BMP180;55560;52.174;20.996;2023-05-02T06:33:55;100444.00;;;17.20
68588;BMP180;55560;52.174;20.996;2023-05-02T06:36:23;100446.60;;;17.24
68588;BMP180;55560;52.174;20.996;2023-05-02T06:38:51;100444.40;;;17.40
68588;BMP180;55560;52.174;20.996;2023-05-02T06:41:18;100443.40;;;18.00
68588;BMP180;55560;52.174;20.996;2023-05-02T06:43:47;100452.60;;;18.44
68588;BMP180;55560;52.174;20.996;2023-05-02T06:46:15;100450.60;;;19.08
68588;BMP180;55560;52.174;20.996;2023-05-02T06:48:42;100449.80;;;19.30
68588;BMP180;55560;52.174;20.996;2023-05-02T06:51:12;100449.80;;;19.20
68588;BMP180;55560;52.174;20.996;2023-05-02T06:53:40;100450.40;;;19.08
68588;BMP180;55560;52.174;20.996;2023-05-02T06:56:08;100451.40;;;18.72
68588;BMP180;55560;52.174;20.996;2023-05-02T06:58:36;100451.20;;;18.60
68588;BMP180;55560;52.174;20.996;2023-05-02T07:01:04;100451.60;;;18.40
68588;BMP180;55560;52.174;20.996;2023-05-02T07:03:32;100457.20;;;18.30
68588;BMP180;55560;52.174;20.996;2023-05-02T07:05:59;100457.80;;;18.12
68588;BMP180;55560;52.174;20.996;2023-05-02T07:08:27;100458.80;;;18.00
68588;BMP180;55560;52.174;20.996;2023-05-02T07:10:55;100452.40;;;17.90
68588;BMP180;55560;52.174;20.996;2023-05-02T07:13:23;100455.20;;;17.80
68588;BMP180;55560;52.174;20.996;2023-05-02T07:15:52;100449.20;;;17.70
68588;BMP180;55560;52.174;20.996;2023-05-02T07:18:20;100447.20;;;17.70
68588;BMP180;55560;52.174;20.996;2023-05-02T07:20:48;100449.80;;;17.70
68588;BMP180;55560;52.174;20.996;2023-05-02T07:23:16;100450.80;;;17.80
68588;BMP180;55560;52.174;20.996;2023-05-02T07:25:44;100456.00;;;17.80
68588;BMP180;55560;52.174;20.996;2023-05-02T07:28:12;100455.60;;;17.90
68588;BMP180;55560;52.174;20.996;2023-05-02T07:30:39;100452.60;;;17.98
68588;BMP180;55560;52.174;20.996;2023-05-02T07:33:07;100454.80;;;18.00
68588;BMP180;55560;52.174;20.996;2023-05-02T07:35:35;100456.40;;;18.10
68588;BMP180;55560;52.174;20.996;2023-05-02T07:38:03;100458.20;;;18.30
68588;BMP180;55560;52.174;20.996;2023-05-02T07:40:31;100454.80;;;18.34
68588;BMP180;55560;52.174;20.996;2023-05-02T07:43:01;100450.20;;;18.40
68588;BMP180;55560;52.174;20.996;2023-05-02T07:45:29;100450.20;;;18.50
68588;BMP180;55560;52.174;20.996;2023-05-02T07:47:57;100455.60;;;18.60
68588;BMP180;55560;52.174;20.996;2023-05-02T07:50:25;100459.20;;;18.70
68588;BMP180;55560;52.174;20.996;2023-05-02T07:52:55;100455.80;;;18.80
68588;BMP180;55560;52.174;20.996;2023-05-02T07:55:23;100445.00;;;19.00
68588;BMP180;55560;52.174;20.996;2023-05-02T08:07:54;100462.60;;;19.80
68588;BMP180;55560;52.174;20.996;2023-05-02T08:10:22;100462.40;;;19.70
68588;BMP180;55560;52.174;20.996;2023-05-02T08:12:50;100467.00;;;19.70
68588;BMP180;55560;52.174;20.996;2023-05-02T08:15:18;100463.20;;;19.60
68588;BMP180;55560;52.174;20.996;2023-05-02T08:17:46;100467.80;;;19.50
68588;BMP180;55560;52.174;20.996;2023-05-02T08:20:14;100470.60;;;19.46
68588;BMP180;55560;52.174;20.996;2023-05-02T08:22:42;100468.80;;;19.50
68588;BMP180;55560;52.174;20.996;2023-05-02T08:25:09;100466.00;;;19.50
68588;BMP180;55560;52.174;20.996;2023-05-02T08:27:37;100470.40;;;19.50
68588;BMP180;55560;52.174;20.996;2023-05-02T08:30:06;100468.80;;;19.56
68588;BMP180;55560;52.174;20.996;2023-05-02T08:32:35;100470.40;;;19.60
68588;BMP180;55560;52.174;20.996;2023-05-02T08:35:04;100471.40;;;19.60
68588;BMP180;55560;52.174;20.996;2023-05-02T08:37:32;100470.60;;;19.60
68588;BMP180;55560;52.174;20.996;2023-05-02T08:39:59;100475.80;;;19.60
68588;BMP180;55560;52.174;20.996;2023-05-02T08:42:28;100478.00;;;19.66
68588;BMP180;55560;52.174;20.996;2023-05-02T08:44:57;100480.00;;;19.70
68588;BMP180;55560;52.174;20.996;2023-05-02T08:47:26;100483.60;;;19.80
68588;BMP180;55560;52.174;20.996;2023-05-02T08:49:54;100487.20;;;19.76
68588;BMP180;55560;52.174;20.996;2023-05-02T08:52:23;100486.40;;;19.78
68588;BMP180;55560;52.174;20.996;2023-05-02T08:54:52;100490.00;;;19.80
68588;BMP180;55560;52.174;20.996;2023-05-02T08:57:20;100490.60;;;19.80
68588;BMP180;55560;52.174;20.996;2023-05-02T08:59:48;100488.20;;;19.90
68588;BMP180;55560;52.174;20.996;2023-05-02T09:05:18;100486.40;;;20.04
68588;BMP180;55560;52.174;20.996;2023-05-02T09:07:48;100490.80;;;20.06
68588;BMP180;55560;52.174;20.996;2023-05-02T09:10:16;100493.60;;;20.10
68588;BMP180;55560;52.174;20.996;2023-05-02T09:12:44;100497.80;;;20.10
68588;BMP180;55560;52.174;20.996;2023-05-02T09:15:14;100497.60;;;20.10
68588;BMP180;55560;52.174;20.996;2023-05-02T09:17:47;100490.00;;;20.16
68588;BMP180;55560;52.174;20.996;2023-05-02T09:20:15;100491.40;;;20.20
68588;BMP180;55560;52.174;20.996;2023-05-02T09:22:51;100498.60;;;20.40
68588;BMP180;55560;52.174;20.996;2023-05-02T09:25:19;100493.00;;;20.50
68588;BMP180;55560;52.174;20.996;2023-05-02T09:27:52;100490.40;;;20.60
68588;BMP180;55560;52.174;20.996;2023-05-02T09:30:25;100496.80;;;20.60
68588;BMP180;55560;52.174;20.996;2023-05-02T09:32:53;100505.00;;;20.70
68588;BMP180;55560;52.174;20.996;2023-05-02T09:35:23;100508.80;;;20.70
68588;BMP180;55560;52.174;20.996;2023-05-02T09:37:56;100509.80;;;20.70
68588;BMP180;55560;52.174;20.996;2023-05-02T09:40:24;100512.00;;;20.70
68588;BMP180;55560;52.174;20.996;2023-05-02T09:43:12;100516.20;;;20.70
68588;BMP180;55560;52.174;20.996;2023-05-02T09:45:41;100513.80;;;20.70
68588;BMP180;55560;52.174;20.996;2023-05-02T09:48:08;100518.40;;;20.70
68588;BMP180;55560;52.174;20.996;2023-05-02T09:50:37;100523.60;;;20.70
68588;BMP180;55560;52.174;20.996;2023-05-02T09:53:07;100522.40;;;20.70
68588;BMP180;55560;52.174;20.996;2023-05-02T09:55:36;100527.40;;;20.60
68588;BMP180;55560;52.174;20.996;2023-05-02T09:58:04;100530.40;;;20.60
68588;BMP180;55560;52.174;20.996;2023-05-02T10:00:39;100534.80;;;20.60
68588;BMP180;55560;52.174;20.996;2023-05-02T10:03:08;100534.80;;;20.60
68588;BMP180;55560;52.174;20.996;2023-05-02T10:05:38;100534.60;;;20.70
68588;BMP180;55560;52.174;20.996;2023-05-02T10:08:07;100539.60;;;20.80
68588;BMP180;55560;52.174;20.996;2023-05-02T10:10:39;100541.20;;;20.80
68588;BMP180;55560;52.174;20.996;2023-05-02T10:13:07;100539.80;;;20.90
68588;BMP180;55560;52.174;20.996;2023-05-02T10:15:40;100542.20;;;20.90
68588;BMP180;55560;52.174;20.996;2023-05-02T10:18:15;100550.60;;;20.98
68588;BMP180;55560;52.174;20.996;2023-05-02T10:20:58;100547.60;;;21.00
68588;BMP180;55560;52.174;20.996;2023-05-02T10:23:28;100553.00;;;21.00
68588;BMP180;55560;52.174;20.996;2023-05-02T10:25:57;100549.20;;;20.88
68588;BMP180;55560;52.174;20.996;2023-05-02T10:28:27;100555.00;;;20.74
68588;BMP180;55560;52.174;20.996;2023-05-02T10:30:54;100562.60;;;20.70
68588;BMP180;55560;52.174;20.996;2023-05-02T10:33:23;100561.00;;;20.60
68588;BMP180;55560;52.174;20.996;2023-05-02T10:35:51;100568.80;;;20.50
68588;BMP180;55560;52.174;20.996;2023-05-02T10:38:20;100570.40;;;20.40
68588;BMP180;55560;52.174;20.996;2023-05-02T10:41:06;100566.80;;;20.46
68588;BMP180;55560;52.174;20.996;2023-05-02T10:43:36;100575.40;;;20.40
68588;BMP180;55560;52.174;20.996;2023-05-02T10:46:31;100577.40;;;20.28
68588;BMP180;55560;52.174;20.996;2023-05-02T10:49:08;100586.20;;;20.10
68588;BMP180;55560;52.174;20.996;2023-05-02T10:51:41;100590.60;;;20.06
68588;BMP180;55560;52.174;20.996;2023-05-02T10:54:24;100592.80;;;20.00
68588;BMP180;55560;52.174;20.996;2023-05-02T10:59:38;100604.20;;;19.76
68588;BMP180;55560;52.174;20.996;2023-05-02T11:05:06;100607.20;;;19.50
68588;BMP180;55560;52.174;20.996;2023-05-02T11:07:36;100613.60;;;19.30
68588;BMP180;55560;52.174;20.996;2023-05-02T11:10:23;100625.40;;;19.10
68588;BMP180;55560;52.174;20.996;2023-05-02T11:12:56;100634.40;;;19.00
68588;BMP180;55560;52.174;20.996;2023-05-02T11:18:03;100647.60;;;18.70
68588;BMP180;55560;52.174;20.996;2023-05-02T11:20:35;100652.60;;;18.54
68588;BMP180;55560;52.174;20.996;2023-05-02T11:25:45;100660.40;;;18.20
68588;BMP180;55560;52.174;20.996;2023-05-02T11:31:05;100671.20;;;17.90
68588;BMP180;55560;52.174;20.996;2023-05-02T11:33:33;100679.60;;;17.82
68588;BMP180;55560;52.174;20.996;2023-05-02T11:36:02;100683.00;;;17.74
68588;BMP180;55560;52.174;20.996;2023-05-02T11:38:36;100691.80;;;17.70
68588;BMP180;55560;52.174;20.996;2023-05-02T11:41:05;100697.00;;;17.70
68588;BMP180;55560;52.174;20.996;2023-05-02T11:43:32;100697.20;;;17.70
68588;BMP180;55560;52.174;20.996;2023-05-02T11:46:00;100695.20;;;17.70
68588;BMP180;55560;52.174;20.996;2023-05-02T11:48:30;100691.00;;;17.70
68588;BMP180;55560;52.174;20.996;2023-05-02T11:51:00;100698.40;;;17.80
68588;BMP180;55560;52.174;20.996;2023-05-02T11:53:32;100701.00;;;17.80
68588;BMP180;55560;52.174;20.996;2023-05-02T11:56:02;100708.80;;;17.80
68588;BMP180;55560;52.174;20.996;2023-05-02T11:58:31;100706.80;;;17.90
68588;BMP180;55560;52.174;20.996;2023-05-02T12:01:14;100703.80;;;17.90
68588;BMP180;55560;52.174;20.996;2023-05-02T12:03:43;100702.20;;;17.90
68588;BMP180;55560;52.174;20.996;2023-05-02T12:06:14;100706.00;;;17.90
68588;BMP180;55560;52.174;20.996;2023-05-02T12:08:43;100716.00;;;17.90
68588;BMP180;55560;52.174;20.996;2023-05-02T12:11:13;100717.80;;;18.00
68588;BMP180;55560;52.174;20.996;2023-05-02T12:13:46;100730.00;;;18.10
68588;BMP180;55560;52.174;20.996;2023-05-02T12:16:15;100721.40;;;18.20
68588;BMP180;55560;52.174;20.996;2023-05-02T12:18:44;100723.60;;;18.30
68588;BMP180;55560;52.174;20.996;2023-05-02T12:21:13;100726.00;;;18.46
68588;BMP180;55560;52.174;20.996;2023-05-02T12:23:41;100726.20;;;18.70
68588;BMP180;55560;52.174;20.996;2023-05-02T12:26:21;100721.60;;;19.00
68588;BMP180;55560;52.174;20.996;2023-05-02T12:28:52;100725.40;;;19.30
68588;BMP180;55560;52.174;20.996;2023-05-02T12:31:24;100726.60;;;19.60
68588;BMP180;55560;52.174;20.996;2023-05-02T12:33:53;100736.40;;;19.80
68588;BMP180;55560;52.174;20.996;2023-05-02T12:36:25;100730.60;;;19.96
68588;BMP180;55560;52.174;20.996;2023-05-02T12:38:57;100726.20;;;20.20
68588;BMP180;55560;52.174;20.996;2023-05-02T12:41:36;100727.20;;;20.40
68588;BMP180;55560;52.174;20.996;2023-05-02T12:44:05;100734.80;;;20.50
68588;BMP180;55560;52.174;20.996;2023-05-02T12:46:34;100728.20;;;20.64
68588;BMP180;55560;52.174;20.996;2023-05-02T12:49:07;100728.00;;;20.80
68588;BMP180;55560;52.174;20.996;2023-05-02T12:51:52;100740.20;;;20.90
68588;BMP180;55560;52.174;20.996;2023-05-02T12:54:23;100734.40;;;21.00
68588;BMP180;55560;52.174;20.996;2023-05-02T12:56:52;100731.80;;;21.00
68588;BMP180;55560;52.174;20.996;2023-05-02T12:59:31;100730.00;;;20.90
68588;BMP180;55560;52.174;20.996;2023-05-02T13:01:59;100734.40;;;20.68
68588;BMP180;55560;52.174;20.996;2023-05-02T13:04:38;100739.20;;;20.50
68588;BMP180;55560;52.174;20.996;2023-05-02T13:07:07;100743.20;;;20.30
68588;BMP180;55560;52.174;20.996;2023-05-02T13:09:35;100753.80;;;20.10
68588;BMP180;55560;52.174;20.996;2023-05-02T13:12:03;100754.20;;;20.00
68588;BMP180;55560;52.174;20.996;2023-05-02T13:14:31;100756.40;;;19.90
68588;BMP180;55560;52.174;20.996;2023-05-02T13:16:59;100758.80;;;19.76
68588;BMP180;55560;52.174;20.996;2023-05-02T13:19:27;100762.20;;;19.66
68588;BMP180;55560;52.174;20.996;2023-05-02T13:21:58;100768.00;;;19.50
68588;BMP180;55560;52.174;20.996;2023-05-02T13:24:26;100769.00;;;19.40
68588;BMP180;55560;52.174;20.996;2023-05-02T13:26:54;100767.20;;;19.30
68588;BMP180;55560;52.174;20.996;2023-05-02T13:29:21;100769.00;;;19.20
68588;BMP180;55560;52.174;20.996;2023-05-02T13:31:49;100763.60;;;19.20
68588;BMP180;55560;52.174;20.996;2023-05-02T13:34:17;100764.00;;;19.20
68588;BMP180;55560;52.174;20.996;2023-05-02T13:36:45;100762.40;;;19.30
68588;BMP180;55560;52.174;20.996;2023-05-02T13:39:13;100765.20;;;19.40
68588;BMP180;55560;52.174;20.996;2023-05-02T13:41:41;100763.00;;;19.50
68588;BMP180;55560;52.174;20.996;2023-05-02T13:44:08;100759.80;;;20.00
68588;BMP180;55560;52.174;20.996;2023-05-02T13:46:36;100762.20;;;20.40
68588;BMP180;55560;52.174;20.996;2023-05-02T13:49:05;100761.60;;;20.86
68588;BMP180;55560;52.174;20.996;2023-05-02T13:51:33;100763.60;;;21.20
68588;BMP180;55560;52.174;20.996;2023-05-02T13:54:01;100765.60;;;21.60
68588;BMP180;55560;52.174;20.996;2023-05-02T13:56:29;100760.40;;;22.08
68588;BMP180;55560;52.174;20.996;2023-05-02T13:58:57;100767.80;;;22.10
68588;BMP180;55560;52.174;20.996;2023-05-02T14:01:24;100770.60;;;22.00
68588;BMP180;55560;52.174;20.996;2023-05-02T14:03:55;100767.40;;;21.80
68588;BMP180;55560;52.174;20.996;2023-05-02T14:06:23;100776.60;;;21.74
68588;BMP180;55560;52.174;20.996;2023-05-02T14:08:51;100778.80;;;21.60
68588;BMP180;55560;52.174;20.996;2023-05-02T14:11:19;100778.20;;;21.34
68588;BMP180;55560;52.174;20.996;2023-05-02T14:13:47;100778.80;;;21.20
68588;BMP180;55560;52.174;20.996;2023-05-02T14:16:15;100777.60;;;21.20
68588;BMP180;55560;52.174;20.996;2023-05-02T14:18:43;100770.60;;;21.10
68588;BMP180;55560;52.174;20.996;2023-05-02T14:21:12;100777.80;;;21.10
68588;BMP180;55560;52.174;20.996;2023-05-02T14:23:39;100775.00;;;20.90
68588;BMP180;55560;52.174;20.996;2023-05-02T14:26:07;100775.00;;;20.70
68588;BMP180;55560;52.174;20.996;2023-05-02T14:28:35;100771.80;;;20.68
68588;BMP180;55560;52.174;20.996;2023-05-02T14:31:06;100772.80;;;20.60
68588;BMP180;55560;52.174;20.996;2023-05-02T14:33:34;100776.20;;;20.46
68588;BMP180;55560;52.174;20.996;2023-05-02T14:36:02;100780.80;;;20.40
68588;BMP180;55560;52.174;20.996;2023-05-02T14:38:30;100782.40;;;20.30
68588;BMP180;55560;52.174;20.996;2023-05-02T14:40:58;100778.20;;;20.20
68588;BMP180;55560;52.174;20.996;2023-05-02T14:43:26;100781.80;;;20.00
68588;BMP180;55560;52.174;20.996;2023-05-02T14:45:54;100781.40;;;19.84
68588;BMP180;55560;52.174;20.996;2023-05-02T14:48:23;100780.60;;;19.68
68588;BMP180;55560;52.174;20.996;2023-05-02T14:50:50;100783.20;;;19.50